Time;durP1;ratioP1;P1;durP2;ratioP2;P2;SDS_P1;SDS_P2;PMS_P1;PMS_P2;Temp;Humidity;BMP_temperature;BMP_pressure;BME280_temperature;BME280_humidity;BME280_pressure;Samples;Min_cycle;Max_cycle;Signal;HPM_P1;HPM_P2
2023/01/19 00:02:16;;;;;;;7.87;6.57;;;-0.60;99.90;;;;;;4991175;28;20644;-72
2023/01/19 00:04:49;;;;;;;8.27;5.77;;;-0.60;99.90;;;;;;4990838;28;20301;-72
2023/01/19 00:07:17;;;;;;;9.87;6.23;;;-0.60;99.90;;;;;;4990542;28;20682;-72
2023/01/19 00:09:44;;;;;;;11.57;6.33;;;-0.70;99.90;;;;;;4990606;28;20281;-72
2023/01/19 00:12:11;;;;;;;5.60;5.03;;;-0.70;99.90;;;;;;4990818;28;20608;-72
2023/01/19 00:14:39;;;;;;;9.97;5.43;;;-0.60;99.90;;;;;;4990478;28;20214;-71
2023/01/19 00:17:06;;;;;;;7.93;6.00;;;-0.60;99.90;;;;;;4977421;28;20252;-72
2023/01/19 00:19:33;;;;;;;8.03;5.67;;;-0.70;99.90;;;;;;4982549;28;20233;-73
2023/01/19 00:22:00;;;;;;;9.40;5.03;;;-0.70;99.90;;;;;;4990557;28;20297;-72
2023/01/19 00:24:26;;;;;;;6.13;5.43;;;-0.60;99.90;;;;;;4990459;28;20297;-71
2023/01/19 00:26:53;;;;;;;6.43;5.43;;;-0.50;99.90;;;;;;4990346;28;20206;-72
2023/01/19 00:29:20;;;;;;;8.57;5.97;;;-0.40;99.90;;;;;;4990509;28;20317;-73
2023/01/19 00:31:48;;;;;;;8.37;5.60;;;-0.30;99.90;;;;;;4990136;28;20210;-72
2023/01/19 00:34:16;;;;;;;5.50;5.00;;;-0.20;99.90;;;;;;4989937;28;20695;-71
2023/01/19 00:36:43;;;;;;;6.40;5.53;;;-0.20;99.90;;;;;;4990741;28;20288;-71
2023/01/19 00:39:09;;;;;;;9.33;5.73;;;-0.20;99.90;;;;;;4990314;28;20265;-72
2023/01/19 00:44:20;;;;;;;6.77;5.50;;;-0.30;99.90;;;;;;4989978;28;20333;-72
2023/01/19 00:46:49;;;;;;;8.93;4.87;;;-0.20;99.90;;;;;;4990129;28;20300;-71
2023/01/19 00:49:15;;;;;;;6.20;5.40;;;-0.10;99.90;;;;;;4989421;28;20306;-73
2023/01/19 00:51:42;;;;;;;8.47;5.30;;;-0.10;99.90;;;;;;4989713;28;20210;-71
2023/01/19 00:54:09;;;;;;;7.30;5.30;;;0.00;99.90;;;;;;4989933;28;20287;-72
2023/01/19 00:56:36;;;;;;;5.53;4.90;;;-0.10;99.90;;;;;;4989838;28;20206;-72
2023/01/19 00:59:03;;;;;;;5.27;4.77;;;-0.10;99.90;;;;;;4989920;28;20299;-73
2023/01/19 01:01:30;;;;;;;6.77;5.30;;;-0.10;99.90;;;;;;4989683;28;20217;-73
2023/01/19 01:03:59;;;;;;;7.70;5.20;;;-0.10;99.90;;;;;;4989818;28;20309;-72
2023/01/19 01:06:26;;;;;;;6.23;4.97;;;-0.10;99.90;;;;;;4989247;28;20305;-72
2023/01/19 01:08:52;;;;;;;6.60;5.07;;;0.00;99.90;;;;;;4989570;28;20691;-74
2023/01/19 01:11:19;;;;;;;5.97;4.70;;;0.00;99.90;;;;;;4989518;28;20680;-74
2023/01/19 01:13:46;;;;;;;7.93;5.03;;;0.10;99.90;;;;;;4989584;28;20206;-73
2023/01/19 01:16:15;;;;;;;5.70;5.10;;;0.10;99.90;;;;;;4989099;28;20238;-72
2023/01/19 01:18:43;;;;;;;5.70;5.03;;;0.10;99.90;;;;;;4989439;28;20627;-73
2023/01/19 01:21:12;;;;;;;5.33;4.83;;;0.20;99.90;;;;;;4989367;28;20206;-73
2023/01/19 01:23:39;;;;;;;6.10;5.47;;;0.20;99.90;;;;;;4989267;28;20289;-72
2023/01/19 01:26:06;;;;;;;7.30;5.60;;;0.20;99.90;;;;;;4989811;28;20297;-73
2023/01/19 01:28:33;;;;;;;6.63;5.60;;;0.20;99.90;;;;;;4989342;28;20509;-72
2023/01/19 01:31:03;;;;;;;7.10;5.57;;;0.20;99.90;;;;;;4989336;28;20280;-72
2023/01/19 01:33:30;;;;;;;5.57;5.00;;;0.20;99.90;;;;;;4989440;28;20245;-72
2023/01/19 01:35:57;;;;;;;7.27;5.50;;;0.20;99.90;;;;;;4989373;28;20210;-72
2023/01/19 01:38:26;;;;;;;6.63;5.50;;;0.20;99.90;;;;;;4989349;28;20202;-72
2023/01/19 01:40:56;;;;;;;7.03;5.83;;;0.20;99.90;;;;;;4989220;28;20296;-72
2023/01/19 01:43:23;;;;;;;6.97;5.83;;;0.00;99.90;;;;;;4988710;28;20305;-72
2023/01/19 01:45:49;;;;;;;6.27;5.50;;;0.00;99.90;;;;;;4986224;28;20310;-72
2023/01/19 01:48:21;;;;;;;7.90;5.03;;;-0.10;99.90;;;;;;4968974;28;20761;-72
2023/01/19 01:53:34;;;;;;;6.63;5.27;;;0.00;99.90;;;;;;4987728;28;20620;-74
2023/01/19 01:56:05;;;;;;;7.33;6.03;;;0.00;99.90;;;;;;4988712;28;20212;-74
2023/01/19 01:58:33;;;;;;;7.70;6.10;;;0.00;99.90;;;;;;4988513;28;20297;-73
2023/01/19 02:03:45;;;;;;;7.93;5.70;;;0.00;99.90;;;;;;5001798;28;20700;-73
2023/01/19 02:06:13;;;;;;;8.13;6.13;;;0.00;99.90;;;;;;5006662;28;20296;-73
2023/01/19 02:14:17;;;;;;;6.23;5.63;;;-0.10;99.90;;;;;;4986967;28;20587;-72
2023/01/19 02:16:45;;;;;;;7.33;5.77;;;-0.10;99.90;;;;;;4986668;28;20242;-73
2023/01/19 02:19:16;;;;;;;7.37;6.00;;;-0.20;99.90;;;;;;4986911;28;20858;-73
2023/01/19 02:21:52;;;;;;;6.67;5.80;;;-0.20;99.90;;;;;;4971466;28;22058;-74
2023/01/19 02:24:21;;;;;;;7.50;6.20;;;-0.20;99.90;;;;;;4988567;28;20293;-73
2023/01/19 02:26:48;;;;;;;9.67;6.20;;;-0.10;99.90;;;;;;4988535;28;20301;-73
2023/01/19 02:29:18;;;;;;;7.03;6.17;;;-0.10;99.90;;;;;;4987851;28;20760;-74
2023/01/19 02:31:46;;;;;;;8.33;6.03;;;-0.10;99.90;;;;;;4988274;28;20799;-73
2023/01/19 02:34:16;;;;;;;7.70;5.93;;;-0.10;99.90;;;;;;4988016;28;20304;-73
2023/01/19 02:36:50;;;;;;;8.47;5.60;;;-0.20;99.90;;;;;;4988362;28;20652;-73
2023/01/19 02:39:19;;;;;;;8.20;6.17;;;-0.20;99.90;;;;;;4988325;28;20309;-73
2023/01/19 02:41:52;;;;;;;9.67;6.53;;;-0.20;99.90;;;;;;4988451;28;20312;-73
2023/01/19 02:44:21;;;;;;;6.90;6.20;;;-0.30;99.90;;;;;;4975204;28;20198;-73
2023/01/19 02:46:48;;;;;;;10.30;6.30;;;-0.30;99.90;;;;;;4975631;28;20222;-73
2023/01/19 02:49:15;;;;;;;7.57;6.13;;;-0.30;99.90;;;;;;4968317;28;20334;-73
2023/01/19 02:51:43;;;;;;;8.40;6.40;;;-0.30;99.90;;;;;;4968718;28;20234;-73
2023/01/19 02:54:27;;;;;;;9.87;6.23;;;-0.30;99.90;;;;;;4977977;28;20244;-73
2023/01/19 02:57:20;;;;;;;6.77;6.00;;;-0.30;99.90;;;;;;4988272;28;20658;-72
2023/01/19 03:00:02;;;;;;;9.00;6.30;;;-0.30;99.90;;;;;;4988490;28;20301;-72
2023/01/19 03:02:41;;;;;;;8.83;6.77;;;-0.30;99.90;;;;;;4988172;28;20301;-73
2023/01/19 03:05:27;;;;;;;8.33;6.20;;;-0.40;99.90;;;;;;4988060;28;20609;-72
2023/01/19 03:08:03;;;;;;;7.50;6.10;;;-0.40;99.90;;;;;;4988470;28;20293;-72
2023/01/19 03:10:36;;;;;;;10.37;6.43;;;-0.40;99.90;;;;;;4987756;28;20229;-72
2023/01/19 03:13:12;;;;;;;8.23;6.53;;;-0.30;99.90;;;;;;4992208;28;20198;-72
2023/01/19 03:15:46;;;;;;;8.93;6.37;;;-0.30;99.90;;;;;;4991434;28;20573;-72
2023/01/19 03:18:17;;;;;;;9.13;6.37;;;-0.30;99.90;;;;;;4986418;28;20357;-70
2023/01/19 03:20:45;;;;;;;7.63;6.77;;;-0.30;99.90;;;;;;4985890;28;20298;-74
2023/01/19 03:23:15;;;;;;;8.60;7.00;;;-0.30;99.90;;;;;;4991345;28;20915;-71
2023/01/19 03:25:46;;;;;;;7.67;6.73;;;-0.30;99.90;;;;;;4991855;28;20713;-71
2023/01/19 03:28:17;;;;;;;10.80;7.40;;;-0.30;99.90;;;;;;4991459;28;20203;-71
2023/01/19 03:30:50;;;;;;;8.30;6.77;;;-0.30;99.90;;;;;;4991688;28;20316;-71
2023/01/19 03:33:22;;;;;;;7.13;6.40;;;-0.30;99.90;;;;;;4989270;28;20300;-71
2023/01/19 03:35:52;;;;;;;10.40;7.40;;;-0.30;99.90;;;;;;4990015;28;20607;-71
2023/01/19 03:38:25;;;;;;;7.87;7.07;;;-0.30;99.90;;;;;;4989928;28;20302;-71
2023/01/19 03:40:54;;;;;;;9.90;7.60;;;-0.30;99.90;;;;;;4990483;28;20296;-71
2023/01/19 03:43:24;;;;;;;10.70;7.47;;;-0.30;99.90;;;;;;4989788;28;20289;-71
2023/01/19 03:45:53;;;;;;;8.80;7.37;;;-0.30;99.90;;;;;;4990093;28;20213;-71
2023/01/19 03:48:20;;;;;;;11.20;7.60;;;-0.30;99.90;;;;;;4988754;28;20293;-71
2023/01/19 03:50:47;;;;;;;9.00;7.00;;;-0.30;99.90;;;;;;4988095;28;20329;-71
2023/01/19 03:53:16;;;;;;;10.47;8.07;;;-0.30;99.90;;;;;;4988964;28;20199;-70
2023/01/19 03:55:46;;;;;;;9.83;7.23;;;-0.30;99.90;;;;;;4989023;28;20205;-70
2023/01/19 03:58:13;;;;;;;11.20;7.83;;;-0.30;99.90;;;;;;4988658;28;20650;-73
2023/01/19 04:00:41;;;;;;;9.20;7.47;;;-0.30;99.90;;;;;;4988247;28;20216;-73
2023/01/19 04:03:14;;;;;;;9.13;7.60;;;-0.30;99.90;;;;;;4988701;28;20317;-72
2023/01/19 04:05:41;;;;;;;13.47;7.73;;;-0.30;99.90;;;;;;4989015;28;20305;-73
2023/01/19 04:08:08;;;;;;;11.80;7.93;;;-0.30;99.90;;;;;;4989932;28;20233;-73
2023/01/19 04:10:35;;;;;;;11.40;7.80;;;-0.30;99.90;;;;;;4990223;28;20225;-73
2023/01/19 04:13:03;;;;;;;10.47;7.33;;;-0.40;99.90;;;;;;4990694;28;20256;-73
2023/01/19 04:15:31;;;;;;;11.10;7.80;;;-0.40;99.90;;;;;;4990555;28;20241;-73
2023/01/19 04:18:00;;;;;;;11.20;7.93;;;-0.40;99.90;;;;;;4951903;28;20315;-73
2023/01/19 04:20:28;;;;;;;9.33;7.77;;;-0.40;99.90;;;;;;4951922;28;20314;-73
2023/01/19 04:22:58;;;;;;;9.17;7.40;;;-0.40;99.90;;;;;;4963763;28;20298;-73
2023/01/19 04:25:25;;;;;;;8.57;7.23;;;-0.50;99.90;;;;;;4971130;28;20210;-73
2023/01/19 04:27:52;;;;;;;8.93;7.60;;;-0.50;99.90;;;;;;4970896;28;20658;-73
2023/01/19 04:30:20;;;;;;;10.03;7.47;;;-0.50;99.90;;;;;;4970729;28;20221;-73
2023/01/19 04:32:47;;;;;;;11.17;7.93;;;-0.50;99.90;;;;;;4970937;28;20272;-73
2023/01/19 04:35:15;;;;;;;10.10;7.37;;;-0.50;99.90;;;;;;4970972;28;20205;-73
2023/01/19 04:37:43;;;;;;;9.23;7.20;;;-0.50;99.90;;;;;;4971056;28;20214;-73
2023/01/19 04:40:11;;;;;;;8.83;7.30;;;-0.60;99.90;;;;;;4970596;28;20211;-73
2023/01/19 04:42:38;;;;;;;10.03;7.57;;;-0.60;99.90;;;;;;4970882;28;20225;-73
2023/01/19 04:45:06;;;;;;;7.90;7.10;;;-0.60;99.90;;;;;;4970860;28;20298;-73
2023/01/19 04:47:33;;;;;;;9.17;7.37;;;-0.60;99.90;;;;;;4970229;28;20704;-73
2023/01/19 04:50:00;;;;;;;9.80;8.40;;;-0.60;99.90;;;;;;4970770;28;20399;-73
2023/01/19 04:52:34;;;;;;;10.77;7.87;;;-0.60;99.90;;;;;;4970353;28;20241;-73
2023/01/19 04:55:01;;;;;;;8.40;7.53;;;-0.60;99.90;;;;;;4970462;28;20659;-73
2023/01/19 04:57:28;;;;;;;13.40;7.77;;;-0.70;99.90;;;;;;4951597;28;20748;-73
2023/01/19 04:59:55;;;;;;;10.67;7.70;;;-0.70;99.90;;;;;;4952252;28;20662;-73
2023/01/19 05:02:23;;;;;;;11.73;7.80;;;-0.70;99.90;;;;;;4969780;28;20771;-73
2023/01/19 05:04:50;;;;;;;8.40;7.23;;;-0.70;99.90;;;;;;4970311;28;20298;-73
2023/01/19 05:07:17;;;;;;;11.37;8.00;;;-0.70;99.90;;;;;;4970068;28;20392;-73
2023/01/19 05:09:46;;;;;;;8.63;6.80;;;-0.70;99.90;;;;;;4970117;28;20621;-73
2023/01/19 05:12:12;;;;;;;10.47;7.60;;;-0.70;99.90;;;;;;4970148;28;20321;-73
2023/01/19 05:14:39;;;;;;;8.50;7.30;;;-0.70;99.90;;;;;;4970184;28;20297;-73
2023/01/19 05:17:06;;;;;;;10.40;7.40;;;-0.70;99.90;;;;;;4982336;28;20238;-73
2023/01/19 05:19:33;;;;;;;9.90;7.53;;;-0.80;99.90;;;;;;4989043;28;20337;-74
2023/01/19 05:22:01;;;;;;;8.93;7.60;;;-0.80;99.90;;;;;;4989492;28;20288;-73
2023/01/19 05:24:28;;;;;;;10.03;8.53;;;-0.80;99.90;;;;;;4983326;28;20717;-73
2023/01/19 05:26:56;;;;;;;8.43;7.13;;;-0.70;99.90;;;;;;4970190;28;20729;-73
2023/01/19 05:29:23;;;;;;;9.53;7.70;;;-0.80;99.90;;;;;;4969781;28;20234;-72
2023/01/19 05:31:50;;;;;;;11.17;8.07;;;-0.80;99.90;;;;;;4969799;28;20226;-74
2023/01/19 05:34:18;;;;;;;9.77;7.30;;;-0.80;99.90;;;;;;4968639;28;20310;-74
2023/01/19 05:36:45;;;;;;;9.03;7.67;;;-0.80;99.90;;;;;;4969923;28;20245;-73
2023/01/19 05:39:11;;;;;;;10.60;8.13;;;-0.80;99.90;;;;;;4969477;28;20217;-72
2023/01/19 05:41:38;;;;;;;8.40;7.23;;;-1.00;99.90;;;;;;4969838;28;20238;-73
2023/01/19 05:44:07;;;;;;;10.20;7.93;;;-1.10;99.90;;;;;;4969763;28;20211;-73
2023/01/19 05:46:34;;;;;;;10.63;7.83;;;-1.10;99.90;;;;;;4978246;28;21154;-73
2023/01/19 05:49:03;;;;;;;8.27;6.77;;;-1.10;99.90;;;;;;4988937;28;20206;-73
2023/01/19 05:51:33;;;;;;;10.03;7.63;;;-1.20;99.90;;;;;;4988811;28;20230;-73
2023/01/19 05:54:00;;;;;;;9.57;7.87;;;-1.10;99.90;;;;;;4989181;28;20195;-73
2023/01/19 05:56:28;;;;;;;8.97;7.67;;;-1.00;99.90;;;;;;4981834;28;20209;-73
2023/01/19 05:58:55;;;;;;;10.93;7.57;;;-1.00;99.90;;;;;;4988796;28;20214;-73
2023/01/19 06:01:23;;;;;;;10.67;7.30;;;-1.00;99.90;;;;;;4988740;28;20228;-73
2023/01/19 06:03:50;;;;;;;9.20;7.50;;;-0.90;99.90;;;;;;4988410;28;20301;-73
2023/01/19 06:06:17;;;;;;;11.47;7.63;;;-0.90;99.90;;;;;;4981025;28;20294;-72
2023/01/19 06:08:44;;;;;;;10.47;7.43;;;-0.90;99.90;;;;;;4968068;28;20215;-74
2023/01/19 06:11:11;;;;;;;8.13;7.03;;;-0.90;99.90;;;;;;4969482;28;20241;-73
2023/01/19 06:13:39;;;;;;;9.23;7.40;;;-0.90;99.90;;;;;;4969253;28;20309;-73
2023/01/19 06:16:07;;;;;;;8.80;7.30;;;-0.90;99.90;;;;;;4969136;28;20613;-73
2023/01/19 06:18:35;;;;;;;8.07;7.27;;;-0.90;99.90;;;;;;4968860;28;20326;-73
2023/01/19 06:21:06;;;;;;;8.43;6.73;;;-0.90;99.90;;;;;;4977201;28;20303;-73
2023/01/19 06:23:34;;;;;;;7.83;6.83;;;-0.90;99.90;;;;;;4988599;28;20213;-74
2023/01/19 06:26:01;;;;;;;11.17;7.57;;;-0.90;99.90;;;;;;4988813;28;20210;-73
2023/01/19 06:28:28;;;;;;;7.67;6.80;;;-1.00;99.90;;;;;;4988472;28;20293;-73
2023/01/19 06:30:56;;;;;;;7.87;6.93;;;-1.00;99.90;;;;;;4988143;28;20206;-72
2023/01/19 06:33:24;;;;;;;10.93;7.30;;;-1.00;99.90;;;;;;4988025;28;20673;-73
2023/01/19 06:35:52;;;;;;;8.67;6.90;;;-1.00;99.90;;;;;;4988234;28;20608;-73
2023/01/19 06:38:20;;;;;;;9.27;6.90;;;-1.00;99.90;;;;;;4987690;28;20770;-73
2023/01/19 06:40:52;;;;;;;9.50;7.70;;;-1.00;99.90;;;;;;4988025;28;20702;-73
2023/01/19 06:43:20;;;;;;;12.27;7.00;;;-1.00;99.90;;;;;;4988229;28;20218;-73
2023/01/19 06:45:47;;;;;;;9.00;6.90;;;-1.00;99.90;;;;;;4988032;28;20766;-72
2023/01/19 06:48:15;;;;;;;8.57;6.80;;;-1.10;99.90;;;;;;4988076;28;20569;-73
2023/01/19 06:50:44;;;;;;;7.10;6.50;;;-1.10;99.90;;;;;;4988324;28;20206;-72
2023/01/19 06:53:12;;;;;;;9.03;7.03;;;-1.10;99.90;;;;;;4988133;28;20231;-72
2023/01/19 06:55:39;;;;;;;10.63;7.07;;;-1.10;99.90;;;;;;4987497;28;20241;-72
2023/01/19 06:58:06;;;;;;;9.60;6.93;;;-1.10;99.90;;;;;;4988092;28;20297;-72
2023/01/19 07:00:33;;;;;;;7.90;7.10;;;-1.10;99.90;;;;;;4987822;28;20212;-71
2023/01/19 07:03:00;;;;;;;7.40;6.33;;;-1.10;99.90;;;;;;4988006;28;20209;-72
2023/01/19 07:05:27;;;;;;;10.47;7.30;;;-1.10;99.90;;;;;;4988088;28;20213;-72
2023/01/19 07:07:55;;;;;;;9.30;6.60;;;-1.10;99.90;;;;;;4987788;28;20304;-73
2023/01/19 07:10:24;;;;;;;6.60;5.90;;;-1.10;99.90;;;;;;4988138;28;20241;-72
2023/01/19 07:12:51;;;;;;;9.27;6.40;;;-1.10;99.90;;;;;;4987898;28;20320;-72
2023/01/19 07:15:20;;;;;;;9.43;6.67;;;-1.10;99.90;;;;;;4987543;28;20638;-72
2023/01/19 07:17:47;;;;;;;8.87;6.50;;;-1.10;99.90;;;;;;4987044;28;20688;-72
2023/01/19 07:20:14;;;;;;;7.13;6.43;;;-1.10;99.90;;;;;;4987689;28;20728;-72
2023/01/19 07:22:44;;;;;;;7.23;6.53;;;-1.10;99.90;;;;;;4987804;28;20730;-72
2023/01/19 07:25:11;;;;;;;8.77;6.57;;;-1.10;99.90;;;;;;4987764;28;20691;-73
2023/01/19 07:27:40;;;;;;;7.77;6.97;;;-1.20;99.90;;;;;;4987454;28;20688;-72
2023/01/19 07:30:08;;;;;;;8.70;6.73;;;-1.20;99.90;;;;;;4991795;28;20210;-73
2023/01/19 07:32:35;;;;;;;7.67;6.30;;;-1.20;99.90;;;;;;5006894;28;20320;-72
2023/01/19 07:35:03;;;;;;;8.30;6.83;;;-1.20;99.90;;;;;;5001315;28;20213;-72
2023/01/19 07:37:30;;;;;;;7.67;6.60;;;-1.30;99.90;;;;;;4987459;28;20216;-72
2023/01/19 07:39:56;;;;;;;8.77;7.40;;;-1.30;99.90;;;;;;4987616;28;20834;-73
2023/01/19 07:42:23;;;;;;;8.47;6.73;;;-1.40;99.90;;;;;;4987496;28;20582;-72
2023/01/19 07:44:51;;;;;;;7.37;6.27;;;-1.50;99.90;;;;;;4987550;28;20752;-73
2023/01/19 07:47:19;;;;;;;7.77;6.53;;;-1.50;99.90;;;;;;4987604;28;20305;-71
2023/01/19 07:49:45;;;;;;;9.13;7.00;;;-1.40;99.90;;;;;;4977087;28;20290;-72
2023/01/19 07:52:12;;;;;;;7.47;6.67;;;-1.30;99.90;;;;;;4984992;28;20324;-72
2023/01/19 07:54:40;;;;;;;7.83;6.77;;;-1.30;99.90;;;;;;4987788;28;20210;-73
2023/01/19 07:57:07;;;;;;;7.30;6.60;;;-1.30;99.90;;;;;;4988013;28;20275;-73
2023/01/19 07:59:34;;;;;;;11.13;6.47;;;-1.20;99.90;;;;;;4990922;28;20345;-73
2023/01/19 08:02:02;;;;;;;7.60;6.50;;;-1.10;99.90;;;;;;4991359;28;20298;-72
2023/01/19 08:04:29;;;;;;;9.30;6.57;;;-1.00;99.90;;;;;;4990972;28;20305;-73
2023/01/19 08:06:56;;;;;;;6.83;6.20;;;-0.90;99.90;;;;;;4991271;28;20301;-72
2023/01/19 08:09:23;;;;;;;9.03;6.90;;;-0.80;99.90;;;;;;4991042;28;20248;-72
2023/01/19 08:11:50;;;;;;;9.70;7.07;;;-0.70;99.90;;;;;;4990935;28;20226;-72
2023/01/19 08:14:16;;;;;;;7.03;6.33;;;-0.70;99.90;;;;;;4990611;28;20234;-73
2023/01/19 08:16:43;;;;;;;7.07;6.30;;;-0.60;99.90;;;;;;4990510;28;20329;-72
2023/01/19 08:19:12;;;;;;;8.90;6.23;;;-0.70;99.90;;;;;;4990296;28;20342;-72
2023/01/19 08:21:38;;;;;;;9.30;5.93;;;-0.70;99.90;;;;;;4990444;28;20257;-72
2023/01/19 08:24:06;;;;;;;6.57;5.90;;;-0.70;99.90;;;;;;4990186;28;20216;-73
2023/01/19 08:26:34;;;;;;;8.90;5.80;;;-0.70;99.90;;;;;;4990539;28;20249;-73
2023/01/19 08:29:03;;;;;;;8.70;5.70;;;-0.60;99.90;;;;;;4990487;28;20305;-72
2023/01/19 08:31:30;;;;;;;6.80;5.90;;;-0.60;99.90;;;;;;4990107;28;20556;-72
2023/01/19 08:33:57;;;;;;;6.77;5.43;;;-0.50;99.90;;;;;;4990468;28;20293;-73
2023/01/19 08:36:26;;;;;;;6.93;5.80;;;-0.50;99.90;;;;;;4990407;28;20252;-72
2023/01/19 08:38:53;;;;;;;6.33;5.60;;;-0.40;99.90;;;;;;4990137;28;20673;-73
2023/01/19 08:41:21;;;;;;;14.10;5.57;;;-0.30;99.90;;;;;;4990029;28;20210;-72
2023/01/19 08:43:48;;;;;;;6.43;5.60;;;-0.20;99.90;;;;;;4990101;28;20225;-72
2023/01/19 08:46:17;;;;;;;6.33;5.33;;;-0.10;99.90;;;;;;4983761;28;20305;-73
2023/01/19 08:48:46;;;;;;;6.77;5.43;;;0.00;99.90;;;;;;4989241;28;20214;-74
2023/01/19 08:51:14;;;;;;;6.73;5.40;;;0.00;99.90;;;;;;4990086;28;20217;-73
2023/01/19 08:53:42;;;;;;;7.23;5.13;;;0.00;99.90;;;;;;4990030;28;20233;-73
2023/01/19 08:56:11;;;;;;;7.83;5.10;;;0.10;99.90;;;;;;4989651;28;20221;-73
2023/01/19 08:58:39;;;;;;;6.20;5.63;;;0.20;99.90;;;;;;4989513;28;20206;-72
2023/01/19 09:01:07;;;;;;;6.43;5.27;;;0.30;99.90;;;;;;4989922;28;20202;-72
2023/01/19 09:03:34;;;;;;;6.13;5.47;;;0.30;99.90;;;;;;4989325;28;20809;-72
2023/01/19 09:06:01;;;;;;;5.50;5.00;;;0.40;99.90;;;;;;4989663;28;20292;-73
2023/01/19 09:08:28;;;;;;;7.63;5.50;;;0.50;99.90;;;;;;4988533;28;20206;-73
2023/01/19 09:10:56;;;;;;;6.07;5.47;;;0.50;99.90;;;;;;4989805;28;20217;-73
2023/01/19 09:13:24;;;;;;;5.73;5.23;;;0.50;99.90;;;;;;4989353;28;20771;-72
2023/01/19 09:15:51;;;;;;;5.63;5.00;;;0.50;99.90;;;;;;4989180;28;20308;-73
2023/01/19 09:18:20;;;;;;;8.17;5.00;;;0.60;99.90;;;;;;4989151;28;20234;-73
2023/01/19 09:20:48;;;;;;;5.00;4.50;;;0.60;99.90;;;;;;4989514;28;20287;-72
2023/01/19 09:23:17;;;;;;;7.20;5.20;;;0.70;99.90;;;;;;4989228;28;20301;-73
2023/01/19 09:25:45;;;;;;;6.00;5.50;;;0.70;99.90;;;;;;4989494;28;20637;-74
2023/01/19 09:28:16;;;;;;;5.77;5.20;;;0.70;99.90;;;;;;4989464;28;20212;-73
2023/01/19 09:30:43;;;;;;;5.67;4.90;;;0.80;99.90;;;;;;4988938;28;20740;-75
2023/01/19 09:33:12;;;;;;;4.97;4.50;;;0.80;99.90;;;;;;4989122;28;20244;-73
2023/01/19 09:35:41;;;;;;;5.10;4.70;;;0.90;99.90;;;;;;4989098;28;20560;-73
2023/01/19 09:38:09;;;;;;;5.63;5.13;;;0.90;99.90;;;;;;4989250;28;20214;-73
2023/01/19 09:40:40;;;;;;;6.00;5.10;;;1.00;99.90;;;;;;4989321;28;20216;-73
2023/01/19 09:43:17;;;;;;;6.33;5.27;;;1.10;99.90;;;;;;4988674;28;20301;-73
2023/01/19 09:45:48;;;;;;;5.27;4.70;;;1.20;99.90;;;;;;4988691;28;20201;-73
2023/01/19 09:48:30;;;;;;;6.63;4.50;;;1.20;99.90;;;;;;4988708;28;20198;-74
2023/01/19 09:51:01;;;;;;;4.93;4.53;;;1.20;99.90;;;;;;4989072;28;20570;-73
2023/01/19 09:53:39;;;;;;;5.30;4.43;;;1.20;99.90;;;;;;4988775;28;20224;-74
2023/01/19 09:56:10;;;;;;;5.27;4.63;;;1.30;99.90;;;;;;4988610;28;20723;-73
2023/01/19 09:58:39;;;;;;;6.37;4.80;;;1.40;99.90;;;;;;4988620;28;20205;-72
2023/01/19 10:01:17;;;;;;;5.50;4.97;;;1.50;99.90;;;;;;4988647;28;20695;-73
2023/01/19 10:03:44;;;;;;;5.10;4.60;;;1.50;99.90;;;;;;4988434;28;20847;-72
2023/01/19 10:06:13;;;;;;;5.23;4.73;;;1.50;99.90;;;;;;4988758;28;20261;-72
2023/01/19 10:08:46;;;;;;;5.13;4.40;;;1.60;99.90;;;;;;4989069;28;20293;-72
2023/01/19 10:11:24;;;;;;;5.10;4.70;;;1.60;99.90;;;;;;4988381;28;20887;-72
2023/01/19 10:13:53;;;;;;;5.90;4.80;;;1.60;99.90;;;;;;4988220;28;20234;-72
2023/01/19 10:16:30;;;;;;;4.70;4.20;;;1.70;99.90;;;;;;4987995;28;20241;-74
2023/01/19 10:19:02;;;;;;;5.33;4.83;;;1.70;99.90;;;;;;4988163;28;20229;-73
2023/01/19 10:21:34;;;;;;;5.97;4.77;;;1.70;99.90;;;;;;4987885;28;20201;-73
2023/01/19 10:24:06;;;;;;;5.23;4.70;;;1.80;99.90;;;;;;4988199;28;20302;-72
2023/01/19 10:26:37;;;;;;;7.23;4.47;;;1.80;99.90;;;;;;4988226;28;20194;-72
2023/01/19 10:29:07;;;;;;;4.93;3.57;;;1.80;99.90;;;;;;4988575;28;20293;-72
2023/01/19 10:31:37;;;;;;;4.90;4.47;;;1.80;99.90;;;;;;4988126;28;20205;-72
2023/01/19 10:34:04;;;;;;;5.47;4.67;;;2.00;99.90;;;;;;4988268;28;20229;-73
2023/01/19 10:36:36;;;;;;;4.70;4.23;;;2.00;99.90;;;;;;4988079;28;20213;-73
2023/01/19 10:39:04;;;;;;;4.93;4.13;;;2.10;99.90;;;;;;4988244;28;20288;-73
2023/01/19 10:41:43;;;;;;;5.77;4.07;;;2.20;99.90;;;;;;4988152;28;20206;-74
2023/01/19 10:44:12;;;;;;;5.10;4.60;;;2.30;99.90;;;;;;4988306;28;20293;-73
2023/01/19 10:46:43;;;;;;;4.97;4.20;;;2.40;99.90;;;;;;4987864;28;20317;-73
2023/01/19 10:49:25;;;;;;;4.80;4.40;;;2.50;99.90;;;;;;4987867;28;20198;-72
2023/01/19 10:51:52;;;;;;;5.30;4.37;;;2.60;99.90;;;;;;4988023;28;20232;-73
2023/01/19 10:54:21;;;;;;;5.87;4.13;;;2.60;99.90;;;;;;4987864;28;20325;-73
2023/01/19 10:56:53;;;;;;;4.90;4.50;;;2.70;99.90;;;;;;4987985;28;20568;-73
2023/01/19 10:59:36;;;;;;;5.03;4.40;;;2.70;99.90;;;;;;4988210;28;20760;-73
2023/01/19 11:02:14;;;;;;;5.50;4.60;;;2.70;99.90;;;;;;4987997;28;20553;-72
2023/01/19 11:04:45;;;;;;;5.30;4.80;;;2.70;99.90;;;;;;4987864;28;20289;-73
2023/01/19 11:07:18;;;;;;;4.53;4.20;;;2.70;99.90;;;;;;4988339;28;20195;-74
2023/01/19 11:09:45;;;;;;;4.50;4.10;;;2.60;99.90;;;;;;4987698;28;20199;-73
2023/01/19 11:12:18;;;;;;;5.17;3.77;;;2.70;99.90;;;;;;4987849;28;20730;-73
2023/01/19 11:14:47;;;;;;;5.17;4.67;;;2.80;99.90;;;;;;4988213;28;20234;-72
2023/01/19 11:17:23;;;;;;;4.77;4.37;;;3.00;99.90;;;;;;4973190;28;20239;-72
2023/01/19 11:19:57;;;;;;;5.53;4.90;;;3.00;99.90;;;;;;4972707;28;20217;-73
2023/01/19 11:22:27;;;;;;;5.07;4.67;;;3.20;99.90;;;;;;4987727;28;20210;-72
2023/01/19 11:24:59;;;;;;;4.87;4.57;;;3.30;99.90;;;;;;4987731;28;20217;-73
2023/01/19 11:27:27;;;;;;;5.10;4.60;;;3.40;99.90;;;;;;4988334;28;20282;-72
2023/01/19 11:30:06;;;;;;;5.00;4.50;;;3.50;99.90;;;;;;4987909;28;20214;-72
2023/01/19 11:32:35;;;;;;;5.43;5.00;;;3.60;99.90;;;;;;4988835;28;20198;-73
2023/01/19 11:35:03;;;;;;;4.70;4.03;;;3.60;99.90;;;;;;4978884;28;20207;-73
2023/01/19 11:37:33;;;;;;;4.70;4.30;;;3.80;99.90;;;;;;4991048;28;20209;-73
2023/01/19 11:40:03;;;;;;;5.53;4.67;;;3.80;99.90;;;;;;4991547;28;20305;-72
2023/01/19 11:42:35;;;;;;;4.97;4.43;;;3.90;99.90;;;;;;4991789;28;20210;-73
2023/01/19 11:45:11;;;;;;;4.90;4.50;;;3.90;99.90;;;;;;4991405;28;20236;-73
2023/01/19 11:47:42;;;;;;;4.93;4.23;;;4.00;99.90;;;;;;4990882;28;20816;-72
2023/01/19 11:50:21;;;;;;;5.13;4.73;;;4.10;99.90;;;;;;4991625;28;20212;-72
2023/01/19 11:52:53;;;;;;;5.10;4.70;;;4.20;99.90;;;;;;4991281;28;20655;-73
2023/01/19 11:55:24;;;;;;;4.73;4.33;;;4.20;99.90;;;;;;4990879;28;20659;-74
2023/01/19 11:57:52;;;;;;;7.67;5.10;;;4.30;99.90;;;;;;4987207;28;20210;-74
2023/01/19 12:00:27;;;;;;;5.40;4.90;;;4.30;99.90;;;;;;4990198;28;20199;-74
2023/01/19 12:02:58;;;;;;;6.13;5.00;;;4.40;99.90;;;;;;4990252;28;20190;-73
2023/01/19 12:05:31;;;;;;;5.07;4.53;;;4.40;99.90;;;;;;4989351;28;20238;-73
2023/01/19 12:08:01;;;;;;;4.77;4.37;;;4.50;99.90;;;;;;4988525;28;20225;-73
2023/01/19 12:10:30;;;;;;;4.70;4.20;;;4.50;99.90;;;;;;4988800;28;20210;-73
2023/01/19 12:12:58;;;;;;;5.13;4.43;;;4.60;99.90;;;;;;4988789;28;20262;-73
2023/01/19 12:15:34;;;;;;;5.23;4.80;;;4.70;99.90;;;;;;4987519;28;20228;-73
2023/01/19 12:18:04;;;;;;;4.60;4.30;;;4.70;99.90;;;;;;4981977;28;20269;-73
2023/01/19 12:20:35;;;;;;;4.33;4.03;;;4.80;99.90;;;;;;4988394;28;20297;-73
2023/01/19 12:23:14;;;;;;;5.40;4.80;;;4.80;99.90;;;;;;4988644;28;20249;-73
2023/01/19 12:25:51;;;;;;;4.90;4.50;;;4.80;99.90;;;;;;4988476;28;20205;-72
2023/01/19 12:28:22;;;;;;;4.20;3.90;;;4.80;99.90;;;;;;4987787;28;20206;-73
2023/01/19 12:30:51;;;;;;;4.13;3.83;;;4.70;99.90;;;;;;4979764;28;20307;-72
2023/01/19 12:33:34;;;;;;;4.00;3.70;;;4.70;99.90;;;;;;4983294;28;20832;-72
2023/01/19 12:36:03;;;;;;;4.77;4.37;;;4.70;99.90;;;;;;4969267;28;20206;-72
2023/01/19 12:38:47;;;;;;;5.07;4.57;;;4.70;99.90;;;;;;4979703;28;20199;-72
2023/01/19 12:41:21;;;;;;;4.90;4.40;;;4.70;99.90;;;;;;4967431;28;20207;-72
2023/01/19 12:43:48;;;;;;;4.73;4.33;;;4.70;99.90;;;;;;4968810;28;20290;-72
2023/01/19 12:46:26;;;;;;;4.87;4.40;;;4.80;99.90;;;;;;4972268;28;20298;-72
2023/01/19 12:48:53;;;;;;;4.83;4.17;;;4.90;99.90;;;;;;4975543;28;20196;-72
2023/01/19 12:51:26;;;;;;;5.03;4.53;;;4.90;99.90;;;;;;4988112;28;20249;-72
2023/01/19 12:53:56;;;;;;;4.80;4.30;;;5.00;99.90;;;;;;4988342;28;20325;-71
2023/01/19 12:56:30;;;;;;;5.47;4.63;;;5.10;99.90;;;;;;4987456;28;20205;-72
2023/01/19 12:58:57;;;;;;;5.10;4.70;;;5.10;99.90;;;;;;4988129;28;20201;-72
2023/01/19 13:01:28;;;;;;;4.60;4.30;;;5.20;99.90;;;;;;4987592;28;20206;-72
2023/01/19 13:04:05;;;;;;;4.73;4.33;;;5.20;99.90;;;;;;4987696;28;20242;-72
2023/01/19 13:07:09;;;;;;;4.63;4.23;;;5.30;99.90;;;;;;4987350;28;20194;-72
2023/01/19 13:09:38;;;;;;;4.57;4.10;;;5.40;99.90;;;;;;4976682;28;20206;-72
2023/01/19 13:12:20;;;;;;;4.50;4.20;;;5.30;99.90;;;;;;4977489;28;20218;-75
2023/01/19 13:14:49;;;;;;;5.27;4.10;;;5.30;99.90;;;;;;4973742;28;20214;-74
2023/01/19 13:17:26;;;;;;;7.13;4.50;;;5.30;99.90;;;;;;4980839;28;20246;-77